Time;durP1;ratioP1;P1;durP2;ratioP2;P2;SDS_P1;SDS_P2;PMS_P1;PMS_P2;Temp;Humidity;BMP_temperature;BMP_pressure;BME280_temperature;BME280_humidity;BME280_pressure;Samples;Min_cycle;Max_cycle;Signal;HPM_P1;HPM_P2
2023/09/26 00:00:22;;;;;;;5.03;4.63;;;15.50;99.90;;;;;;5064878;28;20132;-66
2023/09/26 00:02:49;;;;;;;7.15;5.30;;;15.50;99.90;;;;;;4997144;28;20042;-66
2023/09/26 00:05:15;;;;;;;5.75;4.30;;;15.50;99.90;;;;;;5000590;28;20491;-66
2023/09/26 00:07:41;;;;;;;6.15;4.38;;;15.50;99.90;;;;;;5064934;28;20054;-66
2023/09/26 00:10:09;;;;;;;5.22;4.72;;;15.50;99.90;;;;;;5063155;28;20502;-66
2023/09/26 00:12:35;;;;;;;6.22;4.80;;;15.50;99.90;;;;;;5068557;28;20137;-66
2023/09/26 00:15:01;;;;;;;4.53;4.10;;;15.50;99.90;;;;;;5001603;28;20116;-66
2023/09/26 00:17:26;;;;;;;6.55;4.97;;;15.50;99.90;;;;;;5069031;28;20058;-66
2023/09/26 00:19:52;;;;;;;6.70;5.13;;;15.50;99.90;;;;;;5069092;28;20045;-66
2023/09/26 00:22:18;;;;;;;6.38;4.97;;;15.50;99.90;;;;;;5066596;28;20369;-66
2023/09/26 00:24:43;;;;;;;4.93;4.45;;;15.50;99.90;;;;;;5004127;28;20049;-66
2023/09/26 00:27:09;;;;;;;6.93;4.90;;;15.50;99.90;;;;;;5070561;28;20484;-66
2023/09/26 00:29:35;;;;;;;5.18;4.75;;;15.60;99.90;;;;;;5064345;28;20084;-66
2023/09/26 00:32:00;;;;;;;4.78;4.38;;;15.50;99.90;;;;;;5066149;28;20034;-66
2023/09/26 00:34:28;;;;;;;4.65;4.25;;;15.50;99.90;;;;;;4999511;28;20034;-66
2023/09/26 00:36:54;;;;;;;4.85;4.45;;;15.50;99.90;;;;;;5053561;28;20387;-66
2023/09/26 00:39:21;;;;;;;4.90;4.50;;;15.40;99.90;;;;;;5000133;28;20038;-66
2023/09/26 00:41:46;;;;;;;5.38;4.88;;;15.40;99.90;;;;;;5070941;28;20546;-66
2023/09/26 00:44:12;;;;;;;5.78;4.13;;;15.40;99.90;;;;;;5072958;28;20038;-66
2023/09/26 00:46:42;;;;;;;7.18;4.82;;;15.40;99.90;;;;;;5071266;28;20091;-66
2023/09/26 00:49:08;;;;;;;8.15;4.88;;;15.30;99.90;;;;;;5066589;28;20050;-66
2023/09/26 00:51:35;;;;;;;4.85;4.55;;;15.30;99.90;;;;;;5003917;28;20038;-66
2023/09/26 00:54:02;;;;;;;7.60;4.70;;;15.20;99.90;;;;;;5074071;28;20381;-66
2023/09/26 00:56:28;;;;;;;5.18;4.68;;;15.20;99.90;;;;;;5002595;28;20160;-66
2023/09/26 00:58:54;;;;;;;4.70;4.30;;;15.10;99.90;;;;;;5067759;28;20073;-66
2023/09/26 01:01:25;;;;;;;6.88;5.13;;;15.10;99.90;;;;;;5072037;28;20073;-66
2023/09/26 01:03:52;;;;;;;5.15;4.75;;;15.00;99.90;;;;;;5055551;28;20046;-66
2023/09/26 01:06:18;;;;;;;4.53;4.13;;;14.90;99.90;;;;;;5071571;28;20038;-66
2023/09/26 01:08:43;;;;;;;5.43;4.95;;;14.90;99.90;;;;;;5068211;28;21491;-66
2023/09/26 01:11:09;;;;;;;6.20;5.60;;;14.90;99.90;;;;;;5074138;28;20668;-66
2023/09/26 01:13:34;;;;;;;10.05;5.65;;;14.90;99.90;;;;;;5074235;28;20050;-66
2023/09/26 01:16:16;;;;;;;4.68;4.28;;;14.80;99.90;;;;;;5002427;28;20125;-66
2023/09/26 01:18:41;;;;;;;9.18;4.28;;;14.80;99.90;;;;;;5068422;28;20049;-66
2023/09/26 01:21:07;;;;;;;5.47;4.47;;;14.70;99.90;;;;;;5072281;28;20037;-66
2023/09/26 01:23:36;;;;;;;4.50;4.10;;;14.70;99.90;;;;;;5053630;28;20042;-66
2023/09/26 01:26:02;;;;;;;4.65;4.10;;;14.50;99.90;;;;;;5000920;28;20038;-66
2023/09/26 01:28:27;;;;;;;4.45;4.00;;;14.50;99.90;;;;;;5054620;28;20045;-66
2023/09/26 01:30:53;;;;;;;4.97;4.25;;;14.50;99.90;;;;;;5072408;28;20071;-66
2023/09/26 01:33:21;;;;;;;5.25;4.30;;;14.40;99.90;;;;;;5004097;28;20053;-66
2023/09/26 01:35:48;;;;;;;5.20;4.70;;;14.40;99.90;;;;;;5068772;28;20056;-66
2023/09/26 01:38:14;;;;;;;4.97;4.57;;;14.40;99.90;;;;;;5071310;28;20045;-66
2023/09/26 01:40:41;;;;;;;6.63;5.22;;;14.30;99.90;;;;;;5069538;28;20042;-66
2023/09/26 01:43:06;;;;;;;5.00;4.50;;;14.20;99.90;;;;;;5002236;28;20042;-66
2023/09/26 01:45:32;;;;;;;6.15;4.25;;;14.20;99.90;;;;;;5072005;28;20558;-66
2023/09/26 01:47:59;;;;;;;5.10;4.60;;;14.10;99.90;;;;;;5067752;28;20081;-66
2023/09/26 01:50:24;;;;;;;5.38;4.53;;;14.20;99.90;;;;;;5070304;28;20058;-66
2023/09/26 01:52:50;;;;;;;4.85;4.40;;;14.20;99.90;;;;;;4999336;28;20034;-66
2023/09/26 01:55:20;;;;;;;4.90;4.25;;;14.20;99.90;;;;;;5003998;28;20038;-66
2023/09/26 01:57:46;;;;;;;5.18;4.78;;;14.20;99.90;;;;;;5000925;28;20091;-66
2023/09/26 02:00:13;;;;;;;8.32;4.72;;;14.20;99.90;;;;;;5067660;28;20054;-66
2023/09/26 02:02:44;;;;;;;5.30;4.43;;;14.20;99.90;;;;;;5068763;28;20090;-66
2023/09/26 02:05:12;;;;;;;5.55;4.97;;;14.20;99.90;;;;;;5004906;28;20121;-66
2023/09/26 02:07:37;;;;;;;5.25;4.78;;;14.20;99.90;;;;;;5067771;28;20484;-66
2023/09/26 02:10:04;;;;;;;6.45;4.95;;;14.30;99.90;;;;;;5066290;28;20053;-66
2023/09/26 02:12:30;;;;;;;8.80;5.72;;;14.30;99.90;;;;;;5068732;28;20488;-66
2023/09/26 02:14:56;;;;;;;7.10;5.47;;;14.30;99.90;;;;;;5066428;28;20060;-66
2023/09/26 02:17:22;;;;;;;7.40;5.43;;;14.30;99.90;;;;;;5067765;28;20104;-66
2023/09/26 02:19:48;;;;;;;6.30;5.57;;;14.40;99.90;;;;;;5001500;28;20060;-66
2023/09/26 02:22:13;;;;;;;6.43;5.80;;;14.40;99.90;;;;;;5003481;28;20075;-66
2023/09/26 02:24:39;;;;;;;7.30;6.05;;;14.40;99.90;;;;;;5073742;28;20043;-66
2023/09/26 02:27:04;;;;;;;9.35;5.60;;;14.50;99.90;;;;;;5070868;28;20037;-66
2023/09/26 02:29:30;;;;;;;7.60;6.25;;;14.50;99.90;;;;;;5069954;28;20045;-66
2023/09/26 02:31:56;;;;;;;8.80;6.25;;;14.50;99.90;;;;;;5002390;28;20032;-66
2023/09/26 02:34:22;;;;;;;8.77;5.68;;;14.50;99.90;;;;;;5003414;28;20052;-66
2023/09/26 02:36:48;;;;;;;9.43;5.85;;;14.50;99.90;;;;;;5071752;28;20046;-66
2023/09/26 02:39:14;;;;;;;7.05;5.53;;;14.50;99.90;;;;;;5070161;28;20048;-66
2023/09/26 02:41:39;;;;;;;7.28;5.05;;;14.40;99.90;;;;;;5070110;28;20132;-66
2023/09/26 02:44:06;;;;;;;6.18;5.18;;;14.40;99.90;;;;;;5001049;28;20150;-66
2023/09/26 02:46:32;;;;;;;9.30;5.38;;;14.40;99.90;;;;;;5068647;28;20065;-66
2023/09/26 02:49:00;;;;;;;5.78;5.25;;;14.40;99.90;;;;;;5069316;28;20052;-66
2023/09/26 02:51:26;;;;;;;5.65;5.15;;;14.30;99.90;;;;;;5069061;28;20056;-66
2023/09/26 02:53:51;;;;;;;9.00;5.28;;;14.30;99.90;;;;;;5066712;28;20061;-66
2023/09/26 02:56:17;;;;;;;7.00;5.65;;;14.30;99.90;;;;;;5068169;28;20042;-66
2023/09/26 02:58:42;;;;;;;5.47;4.97;;;14.20;99.90;;;;;;4997409;28;20080;-66
2023/09/26 03:01:08;;;;;;;9.40;6.10;;;14.20;99.90;;;;;;5001798;28;20033;-66
2023/09/26 03:03:34;;;;;;;6.10;5.50;;;14.20;99.90;;;;;;5069297;28;20073;-66
2023/09/26 03:06:00;;;;;;;6.50;5.43;;;14.10;99.90;;;;;;5069060;28;20040;-66
2023/09/26 03:08:26;;;;;;;6.25;5.35;;;14.10;99.90;;;;;;5052674;28;20042;-66
2023/09/26 03:10:52;;;;;;;8.18;7.18;;;14.00;99.90;;;;;;5064503;28;20042;-66
2023/09/26 03:13:17;;;;;;;6.07;5.47;;;14.00;99.90;;;;;;5068855;28;20053;-66
2023/09/26 03:15:43;;;;;;;7.43;5.75;;;13.90;99.90;;;;;;5002925;28;20132;-66
2023/09/26 03:18:08;;;;;;;7.88;6.03;;;13.90;99.90;;;;;;5001010;28;20048;-66
2023/09/26 03:20:38;;;;;;;10.07;6.18;;;13.90;99.90;;;;;;5070355;28;20044;-66
2023/09/26 03:23:03;;;;;;;6.50;5.32;;;13.90;99.90;;;;;;5067776;28;20038;-66
2023/09/26 03:25:32;;;;;;;6.35;5.75;;;13.80;99.90;;;;;;5071422;28;20467;-66
2023/09/26 03:28:03;;;;;;;10.88;6.18;;;13.80;99.90;;;;;;4999499;28;20038;-66
2023/09/26 03:30:29;;;;;;;6.97;6.18;;;13.70;99.90;;;;;;5066080;28;20068;-66
2023/09/26 03:32:54;;;;;;;9.10;6.53;;;13.70;99.90;;;;;;5074639;28;20128;-66
2023/09/26 03:35:20;;;;;;;7.43;5.75;;;13.70;99.90;;;;;;5000097;28;20044;-66
2023/09/26 03:37:46;;;;;;;8.40;6.40;;;13.70;99.90;;;;;;5051182;28;20155;-66
2023/09/26 03:40:11;;;;;;;7.18;6.47;;;13.70;99.90;;;;;;5066283;28;20042;-66
2023/09/26 03:42:38;;;;;;;6.68;5.68;;;13.60;99.90;;;;;;4999708;28;20044;-66
2023/09/26 03:45:05;;;;;;;8.05;5.93;;;13.50;99.90;;;;;;5069308;28;20042;-66
2023/09/26 03:47:30;;;;;;;7.05;6.35;;;13.50;99.90;;;;;;5067210;28;20050;-66
2023/09/26 03:49:56;;;;;;;8.65;7.75;;;13.40;99.90;;;;;;5049852;28;20655;-66
2023/09/26 03:52:23;;;;;;;8.38;6.40;;;13.40;99.90;;;;;;5070066;28;20042;-66
2023/09/26 03:54:49;;;;;;;6.55;5.00;;;13.40;99.90;;;;;;5002260;28;20042;-66
2023/09/26 03:57:15;;;;;;;7.57;5.60;;;13.40;99.90;;;;;;4999904;28;20112;-66
2023/09/26 03:59:40;;;;;;;8.10;7.00;;;13.30;99.90;;;;;;5070302;28;20136;-66
2023/09/26 04:02:06;;;;;;;7.53;6.82;;;13.30;99.90;;;;;;5067577;28;20037;-66
2023/09/26 04:04:31;;;;;;;7.13;6.43;;;13.20;99.90;;;;;;5066888;28;20046;-66
2023/09/26 04:06:58;;;;;;;8.20;7.03;;;13.20;99.90;;;;;;5065373;28;20045;-66
2023/09/26 04:09:23;;;;;;;8.82;7.13;;;13.20;99.90;;;;;;4996103;28;20408;-66
2023/09/26 04:11:49;;;;;;;7.68;6.93;;;13.20;99.90;;;;;;5000096;28;20030;-66
2023/09/26 04:14:15;;;;;;;8.10;7.43;;;13.10;99.90;;;;;;5066097;28;20038;-66
2023/09/26 04:16:40;;;;;;;8.20;7.40;;;13.10;99.90;;;;;;5065145;28;20060;-66
2023/09/26 04:19:08;;;;;;;9.75;8.23;;;13.00;99.90;;;;;;5063909;28;20054;-66
2023/09/26 04:21:34;;;;;;;8.20;7.38;;;13.10;99.90;;;;;;5064507;28;20826;-66
2023/09/26 04:24:03;;;;;;;10.07;7.82;;;13.00;99.90;;;;;;5072447;28;20042;-66
2023/09/26 04:26:30;;;;;;;8.35;7.55;;;13.00;99.90;;;;;;5068262;28;20034;-66
2023/09/26 04:28:56;;;;;;;8.25;7.28;;;13.00;99.90;;;;;;5062845;28;20042;-66
2023/09/26 04:31:21;;;;;;;9.27;7.75;;;12.90;99.90;;;;;;4996214;28;20042;-66
2023/09/26 04:33:48;;;;;;;8.05;7.22;;;12.90;99.90;;;;;;5065159;28;20559;-66
2023/09/26 04:36:14;;;;;;;9.70;7.50;;;12.90;99.90;;;;;;5068581;28;20141;-66
2023/09/26 04:38:40;;;;;;;8.77;7.88;;;12.90;99.90;;;;;;4996425;28;20088;-66
2023/09/26 04:41:06;;;;;;;11.50;8.02;;;12.90;99.90;;;;;;5065117;28;20037;-66
2023/09/26 04:43:32;;;;;;;10.20;8.52;;;12.90;99.90;;;;;;5063879;28;20040;-66
2023/09/26 04:45:58;;;;;;;8.15;7.32;;;12.90;99.90;;;;;;5064633;28;20046;-66
2023/09/26 04:48:24;;;;;;;11.65;7.70;;;12.90;99.90;;;;;;5007178;28;20628;-66
2023/09/26 04:50:50;;;;;;;10.35;8.50;;;12.90;99.90;;;;;;5065752;28;20485;-66
2023/09/26 04:53:16;;;;;;;8.93;8.00;;;12.80;99.90;;;;;;5066409;28;20042;-66
2023/09/26 04:55:42;;;;;;;8.68;7.88;;;12.80;99.90;;;;;;5070806;28;20054;-66
2023/09/26 04:58:08;;;;;;;8.85;7.93;;;12.80;99.90;;;;;;4996041;28;20484;-66
2023/09/26 05:00:35;;;;;;;8.63;7.72;;;12.80;99.90;;;;;;4997050;28;20038;-66
2023/09/26 05:03:01;;;;;;;10.10;7.63;;;12.80;99.90;;;;;;5068142;28;20057;-66
2023/09/26 05:05:27;;;;;;;9.15;8.27;;;12.70;99.90;;;;;;5066153;28;20129;-66
2023/09/26 05:07:53;;;;;;;9.98;8.98;;;12.70;99.90;;;;;;4998862;28;20398;-66
2023/09/26 05:10:19;;;;;;;9.05;8.23;;;12.80;99.90;;;;;;4998752;28;20040;-66
2023/09/26 05:12:45;;;;;;;9.00;8.18;;;12.70;99.90;;;;;;4999296;28;20046;-66
2023/09/26 05:15:15;;;;;;;8.90;8.10;;;12.70;99.90;;;;;;5067477;28;20049;-66
2023/09/26 05:17:42;;;;;;;9.13;7.85;;;12.70;99.90;;;;;;5068037;28;20087;-66
2023/09/26 05:20:10;;;;;;;8.95;8.07;;;12.70;99.90;;;;;;5065571;28;20046;-66
2023/09/26 05:22:38;;;;;;;8.85;8.05;;;12.60;99.90;;;;;;5063094;28;20054;-66
2023/09/26 05:25:04;;;;;;;9.48;8.57;;;12.70;99.90;;;;;;5082110;27;20074;-66
2023/09/26 05:27:30;;;;;;;10.85;9.85;;;12.60;99.90;;;;;;5070449;28;20053;-65
2023/09/26 05:29:55;;;;;;;10.57;8.32;;;12.60;99.90;;;;;;5004678;28;20022;-66
2023/09/26 05:32:21;;;;;;;9.60;8.55;;;12.70;99.90;;;;;;5070406;28;20034;-66
2023/09/26 05:34:46;;;;;;;12.93;9.05;;;12.70;99.90;;;;;;5001039;28;20038;-66
2023/09/26 05:37:12;;;;;;;10.32;9.32;;;12.70;99.90;;;;;;5003030;28;20034;-66
2023/09/26 05:39:38;;;;;;;11.38;6.97;;;12.70;99.90;;;;;;5072908;28;20049;-66
2023/09/26 05:42:03;;;;;;;12.10;9.13;;;12.70;99.90;;;;;;5068268;28;20041;-66
2023/09/26 05:44:29;;;;;;;10.10;9.10;;;12.70;99.90;;;;;;5071735;28;20043;-66
2023/09/26 05:46:54;;;;;;;10.05;9.15;;;12.80;99.90;;;;;;5072095;28;20034;-66
2023/09/26 05:49:22;;;;;;;11.32;9.50;;;12.70;99.90;;;;;;5070667;28;20041;-66
2023/09/26 05:51:47;;;;;;;10.48;9.48;;;12.70;99.90;;;;;;5073866;28;20534;-66
2023/09/26 05:54:13;;;;;;;11.23;9.15;;;12.70;99.90;;;;;;5070101;28;20060;-66
2023/09/26 05:56:39;;;;;;;10.98;9.98;;;12.80;99.90;;;;;;5067767;28;20147;-66
2023/09/26 05:59:04;;;;;;;13.90;10.77;;;12.80;99.90;;;;;;5000954;28;20037;-66
2023/09/26 06:01:30;;;;;;;9.63;8.73;;;12.80;99.90;;;;;;5068083;28;20053;-66
2023/09/26 06:03:55;;;;;;;10.82;9.50;;;12.80;99.90;;;;;;5067790;28;20073;-66
2023/09/26 06:06:21;;;;;;;12.23;8.80;;;12.80;99.90;;;;;;5070658;28;20038;-66
2023/09/26 06:08:47;;;;;;;10.07;8.85;;;12.80;99.90;;;;;;5059441;28;20115;-66
2023/09/26 06:11:14;;;;;;;9.20;8.38;;;12.90;99.90;;;;;;5060933;28;20046;-66
2023/09/26 06:13:42;;;;;;;9.10;8.30;;;13.00;99.90;;;;;;5065120;28;20114;-66
2023/09/26 06:16:08;;;;;;;8.93;8.13;;;13.00;99.90;;;;;;5051672;28;20057;-66
2023/09/26 06:18:33;;;;;;;8.55;7.78;;;13.10;99.90;;;;;;5068247;28;20042;-66
2023/09/26 06:21:03;;;;;;;10.30;8.98;;;13.00;99.90;;;;;;5000081;28;20038;-66
2023/09/26 06:23:29;;;;;;;8.95;8.05;;;13.10;99.90;;;;;;5059611;28;20488;-66
2023/09/26 06:25:59;;;;;;;10.27;8.30;;;13.10;99.90;;;;;;5000097;28;20106;-66
2023/09/26 06:28:25;;;;;;;9.05;8.25;;;13.20;99.90;;;;;;5066142;28;20050;-66
2023/09/26 06:30:50;;;;;;;9.98;8.98;;;13.30;99.90;;;;;;5070746;28;20038;-66
2023/09/26 06:33:16;;;;;;;12.23;8.57;;;13.40;99.90;;;;;;5047480;28;20324;-66
2023/09/26 06:35:42;;;;;;;8.45;7.75;;;13.40;99.90;;;;;;5067470;28;20443;-66
2023/09/26 06:38:07;;;;;;;8.55;7.85;;;13.50;99.90;;;;;;5069822;28;20133;-66
2023/09/26 06:40:33;;;;;;;8.93;7.95;;;13.50;99.90;;;;;;5061535;28;21346;-66
2023/09/26 06:43:00;;;;;;;8.05;7.35;;;13.50;99.90;;;;;;5060229;28;20058;-66
2023/09/26 06:45:30;;;;;;;7.55;6.85;;;13.60;99.90;;;;;;4998384;28;20089;-66
2023/09/26 06:47:56;;;;;;;9.98;8.45;;;13.60;99.90;;;;;;4997545;28;20627;-66
2023/09/26 06:50:22;;;;;;;8.90;8.05;;;13.60;99.90;;;;;;5063994;28;20077;-66
2023/09/26 06:52:48;;;;;;;8.20;7.40;;;13.70;99.90;;;;;;4996510;28;20474;-66
2023/09/26 06:55:14;;;;;;;8.98;8.15;;;13.70;99.90;;;;;;5082723;28;20041;-66
2023/09/26 06:57:40;;;;;;;8.15;7.38;;;13.80;99.90;;;;;;4999586;28;20522;-66
2023/09/26 07:00:16;;;;;;;10.35;7.80;;;13.80;99.90;;;;;;4991374;28;20099;-66
2023/09/26 07:02:45;;;;;;;10.57;7.55;;;13.90;99.90;;;;;;5064683;28;20488;-66
2023/09/26 07:05:11;;;;;;;8.82;7.18;;;14.10;99.90;;;;;;4997641;28;20074;-66
2023/09/26 07:07:38;;;;;;;8.60;7.38;;;14.10;99.90;;;;;;5061846;28;20502;-66
2023/09/26 07:10:05;;;;;;;10.27;6.93;;;14.20;99.90;;;;;;5062030;28;20077;-66
2023/09/26 07:12:30;;;;;;;8.23;7.43;;;14.30;99.90;;;;;;4996257;28;20073;-66
2023/09/26 07:14:56;;;;;;;13.70;6.65;;;14.50;99.90;;;;;;4992340;28;20082;-66
2023/09/26 07:17:22;;;;;;;7.75;6.55;;;14.60;99.90;;;;;;4994901;28;20575;-66
2023/09/26 07:19:51;;;;;;;9.27;7.55;;;14.80;99.90;;;;;;4991936;28;20053;-66
2023/09/26 07:22:17;;;;;;;6.85;6.32;;;14.90;99.90;;;;;;4997209;28;20045;-66
2023/09/26 07:24:47;;;;;;;10.50;6.95;;;14.90;99.90;;;;;;4999362;28;20042;-67
2023/09/26 07:27:12;;;;;;;9.15;7.20;;;15.10;99.90;;;;;;5065545;28;20049;-66
2023/09/26 07:29:38;;;;;;;8.40;7.57;;;15.10;99.90;;;;;;4995496;28;20049;-66
2023/09/26 07:32:03;;;;;;;7.30;6.65;;;15.20;99.90;;;;;;5059188;28;20325;-66
2023/09/26 07:34:29;;;;;;;9.00;6.68;;;15.30;99.90;;;;;;4995801;28;20038;-66
2023/09/26 07:36:55;;;;;;;10.48;7.38;;;15.30;99.90;;;;;;5066182;28;20045;-66
2023/09/26 07:39:21;;;;;;;7.40;6.72;;;15.50;99.90;;;;;;4996779;28;20037;-66
2023/09/26 07:41:47;;;;;;;8.23;6.78;;;15.60;99.90;;;;;;4995419;28;20057;-66
2023/09/26 07:44:12;;;;;;;6.75;6.05;;;15.70;99.90;;;;;;5066195;28;20046;-66
2023/09/26 07:46:38;;;;;;;19.73;6.43;;;15.80;99.90;;;;;;5062930;28;20124;-66
2023/09/26 07:49:03;;;;;;;11.32;6.68;;;15.90;99.90;;;;;;5081608;28;20092;-66
2023/09/26 07:51:29;;;;;;;7.70;6.22;;;15.90;99.90;;;;;;4998308;28;20037;-66
2023/09/26 07:53:55;;;;;;;6.90;6.18;;;16.10;99.90;;;;;;5080081;28;20049;-66
2023/09/26 07:56:20;;;;;;;11.07;6.03;;;16.20;99.90;;;;;;4994592;28;20046;-66
2023/09/26 07:58:46;;;;;;;12.13;6.38;;;16.20;99.90;;;;;;5066474;28;20045;-67
2023/09/26 08:01:11;;;;;;;9.70;6.18;;;16.30;99.90;;;;;;5061704;28;20046;-66
2023/09/26 08:03:41;;;;;;;9.05;6.72;;;16.40;99.90;;;;;;5059627;28;20038;-66
2023/09/26 08:06:07;;;;;;;9.30;5.88;;;16.50;99.90;;;;;;5053835;28;20096;-66
2023/09/26 08:08:33;;;;;;;6.93;6.20;;;16.50;99.90;;;;;;5061991;28;20070;-66
2023/09/26 08:11:06;;;;;;;8.13;6.22;;;16.50;99.90;;;;;;5062384;28;20493;-66
2023/09/26 08:13:32;;;;;;;11.18;5.93;;;16.60;99.90;;;;;;5058848;28;20440;-67
2023/09/26 08:15:58;;;;;;;10.82;6.38;;;16.70;99.90;;;;;;4998362;28;20038;-66
2023/09/26 08:18:24;;;;;;;10.93;6.80;;;16.70;99.90;;;;;;5061504;28;20049;-66
2023/09/26 08:20:55;;;;;;;10.40;6.57;;;16.80;99.90;;;;;;4997676;28;20046;-66
2023/09/26 08:23:21;;;;;;;8.65;6.07;;;16.80;99.90;;;;;;5063340;28;20085;-66
2023/09/26 08:25:46;;;;;;;7.57;6.50;;;16.90;99.90;;;;;;4993370;28;20294;-66
2023/09/26 08:28:12;;;;;;;12.10;5.97;;;16.90;99.90;;;;;;5063355;28;20096;-66
2023/09/26 08:30:37;;;;;;;9.57;7.13;;;17.00;99.90;;;;;;5066357;28;20045;-66
2023/09/26 08:33:03;;;;;;;9.25;6.03;;;17.00;99.90;;;;;;4999535;28;20038;-67
2023/09/26 08:35:31;;;;;;;7.93;5.82;;;17.00;99.90;;;;;;5000492;28;20411;-66
2023/09/26 08:37:57;;;;;;;6.82;6.13;;;17.00;99.90;;;;;;5068532;28;20582;-66
2023/09/26 08:40:25;;;;;;;10.38;6.50;;;17.10;99.90;;;;;;5053722;28;20052;-67
2023/09/26 08:42:54;;;;;;;12.23;7.28;;;17.10;99.90;;;;;;4995064;28;20053;-67
2023/09/26 08:45:20;;;;;;;8.32;6.28;;;17.20;99.90;;;;;;5062236;28;20408;-66
2023/09/26 08:47:46;;;;;;;8.20;6.55;;;17.20;99.90;;;;;;5065785;28;20070;-66
2023/09/26 08:50:12;;;;;;;8.23;5.63;;;17.20;99.90;;;;;;5068252;28;20065;-67
2023/09/26 08:52:37;;;;;;;9.43;5.47;;;17.30;99.90;;;;;;5064465;28;20045;-66
2023/09/26 08:55:03;;;;;;;7.97;6.22;;;17.30;99.90;;;;;;4997423;28;20050;-66
2023/09/26 08:57:31;;;;;;;9.15;6.97;;;17.40;99.90;;;;;;5068551;28;20038;-66
2023/09/26 09:00:00;;;;;;;9.50;5.60;;;17.40;99.90;;;;;;5050602;28;20074;-67
2023/09/26 09:02:26;;;;;;;10.10;5.72;;;17.40;99.90;;;;;;5003631;28;20049;-66
2023/09/26 09:04:52;;;;;;;13.13;6.22;;;17.50;99.90;;;;;;5068043;28;20046;-66
2023/09/26 09:07:17;;;;;;;8.73;6.55;;;17.50;99.90;;;;;;4999299;28;20181;-67
2023/09/26 09:10:04;;;;;;;8.52;5.90;;;17.50;99.90;;;;;;5000145;28;20095;-66
2023/09/26 09:12:30;;;;;;;9.35;5.90;;;17.60;99.90;;;;;;5071408;28;20567;-66
2023/09/26 09:14:55;;;;;;;9.80;6.07;;;17.70;99.90;;;;;;5000686;28;20038;-67
2023/09/26 09:17:21;;;;;;;10.88;6.32;;;17.80;99.90;;;;;;5071875;28;20477;-66
2023/09/26 09:19:48;;;;;;;10.13;5.63;;;17.90;99.90;;;;;;4998814;28;20087;-66
2023/09/26 09:22:20;;;;;;;7.40;5.50;;;18.00;99.90;;;;;;5071397;28;20055;-66
2023/09/26 09:24:54;;;;;;;10.20;5.72;;;18.20;99.90;;;;;;4997145;28;20254;-67
2023/09/26 09:27:33;;;;;;;7.85;5.50;;;18.40;99.90;;;;;;5002643;28;20038;-67
2023/09/26 09:30:07;;;;;;;9.27;5.63;;;18.50;99.90;;;;;;5069095;28;20042;-67
2023/09/26 09:32:33;;;;;;;7.68;4.70;;;18.70;99.90;;;;;;5002206;28;20042;-67
2023/09/26 09:34:59;;;;;;;7.90;4.50;;;18.80;99.90;;;;;;5068892;28;20082;-67
2023/09/26 09:37:25;;;;;;;8.65;4.88;;;18.90;99.90;;;;;;5071175;28;20073;-66
2023/09/26 09:39:51;;;;;;;8.50;4.97;;;19.00;99.90;;;;;;4998775;28;20045;-67
2023/09/26 09:42:17;;;;;;;6.28;4.32;;;19.10;99.90;;;;;;5001695;28;20034;-67
2023/09/26 09:44:42;;;;;;;7.40;4.88;;;19.20;99.90;;;;;;5000559;28;20090;-66
2023/09/26 09:47:11;;;;;;;6.60;4.55;;;19.30;99.90;;;;;;5003983;28;20045;-67
2023/09/26 09:49:41;;;;;;;6.80;5.28;;;19.30;99.90;;;;;;5001562;28;20038;-67
2023/09/26 09:52:09;;;;;;;8.05;4.65;;;19.40;99.90;;;;;;5066473;28;20034;-66
2023/09/26 09:54:41;;;;;;;5.97;4.65;;;19.50;99.90;;;;;;5065702;28;20039;-67
2023/09/26 09:57:11;;;;;;;8.02;5.10;;;19.60;99.90;;;;;;4999495;28;20049;-67
2023/09/26 09:59:38;;;;;;;5.43;4.20;;;19.60;99.90;;;;;;4999878;28;20113;-67
2023/09/26 10:02:04;;;;;;;8.35;5.05;;;19.70;99.90;;;;;;5064917;28;20172;-67
2023/09/26 10:04:31;;;;;;;4.93;4.40;;;19.70;99.90;;;;;;5002515;28;20146;-67
2023/09/26 10:06:59;;;;;;;7.35;4.80;;;19.70;99.90;;;;;;5002206;28;20391;-66
2023/09/26 10:09:25;;;;;;;7.57;5.25;;;19.80;99.90;;;;;;5004130;28;20060;-66
2023/09/26 10:11:55;;;;;;;4.32;3.92;;;19.70;99.90;;;;;;5074122;28;20046;-67
2023/09/26 10:14:23;;;;;;;8.18;4.75;;;19.60;99.90;;;;;;4998762;28;20067;-67
2023/09/26 10:16:49;;;;;;;6.13;4.45;;;19.60;99.90;;;;;;5053244;28;20046;-67
2023/09/26 10:19:16;;;;;;;9.95;4.90;;;19.70;99.90;;;;;;5068697;28;20107;-67
2023/09/26 10:21:42;;;;;;;7.68;4.55;;;19.70;99.90;;;;;;5001993;28;20046;-66
2023/09/26 10:24:12;;;;;;;8.32;4.60;;;19.70;99.90;;;;;;5001383;28;20060;-66
2023/09/26 10:26:47;;;;;;;7.13;5.25;;;19.70;99.90;;;;;;5069770;28;20337;-67
2023/09/26 10:29:27;;;;;;;6.32;4.07;;;19.70;99.90;;;;;;5063718;28;20042;-67
2023/09/26 10:31:58;;;;;;;8.77;5.05;;;19.80;99.90;;;;;;5001994;28;20034;-67
2023/09/26 10:34:28;;;;;;;5.55;4.55;;;19.80;99.90;;;;;;5000755;28;20046;-67
2023/09/26 10:36:55;;;;;;;6.45;4.55;;;19.90;99.90;;;;;;4999880;28;20050;-67
2023/09/26 10:39:33;;;;;;;5.50;4.00;;;19.90;99.90;;;;;;5003056;28;20608;-67
2023/09/26 10:42:16;;;;;;;7.07;4.22;;;19.90;99.90;;;;;;5066487;28;20176;-67
2023/09/26 10:44:43;;;;;;;9.15;4.38;;;20.00;99.90;;;;;;5060938;28;20121;-67
2023/09/26 10:47:11;;;;;;;6.30;4.88;;;20.10;99.90;;;;;;5065893;28;20547;-67
2023/09/26 10:49:37;;;;;;;8.38;4.45;;;20.00;99.90;;;;;;5065816;28;20038;-67
2023/09/26 10:52:08;;;;;;;6.90;4.43;;;20.00;99.90;;;;;;5001571;28;20049;-67
2023/09/26 10:54:35;;;;;;;7.15;4.53;;;20.00;99.90;;;;;;5067419;28;20042;-66
2023/09/26 10:57:00;;;;;;;6.97;4.53;;;20.00;99.90;;;;;;4998782;28;20042;-66
2023/09/26 10:59:30;;;;;;;8.25;4.53;;;20.00;99.90;;;;;;5065130;28;20046;-66
2023/09/26 11:01:57;;;;;;;8.10;4.20;;;20.00;99.90;;;;;;5001013;28;20117;-67
2023/09/26 11:04:31;;;;;;;6.20;4.53;;;20.10;99.90;;;;;;5000919;28;20120;-67
2023/09/26 11:06:58;;;;;;;8.13;4.53;;;20.00;99.90;;;;;;5068546;28;20041;-67
2023/09/26 11:09:25;;;;;;;6.43;4.75;;;20.10;99.90;;;;;;5000594;28;20042;-67
2023/09/26 11:11:54;;;;;;;9.13;5.57;;;20.10;99.90;;;;;;5068315;28;20082;-67
2023/09/26 11:14:20;;;;;;;8.68;4.55;;;20.10;99.90;;;;;;5071846;28;20045;-67
2023/09/26 11:16:46;;;;;;;7.85;4.53;;;20.10;99.90;;;;;;5000277;28;20046;-67
2023/09/26 11:19:11;;;;;;;6.93;5.35;;;20.20;99.90;;;;;;5000529;28;20033;-67
2023/09/26 11:21:37;;;;;;;8.02;4.82;;;20.20;99.90;;;;;;5001267;28;20053;-67
2023/09/26 11:24:17;;;;;;;8.45;5.32;;;20.20;99.90;;;;;;5063196;28;20041;-67
2023/09/26 11:26:44;;;;;;;8.60;5.53;;;20.20;99.90;;;;;;4997733;28;20106;-67
2023/09/26 11:29:10;;;;;;;8.15;5.28;;;20.40;99.90;;;;;;5068157;28;20440;-67
2023/09/26 11:31:36;;;;;;;6.65;4.85;;;20.30;99.90;;;;;;5064959;28;20080;-67
2023/09/26 11:34:02;;;;;;;6.85;5.05;;;20.30;99.90;;;;;;4993601;28;20403;-67
2023/09/26 11:36:28;;;;;;;5.50;4.90;;;20.30;99.90;;;;;;4994345;28;20124;-67
2023/09/26 11:38:53;;;;;;;6.18;4.72;;;20.50;99.90;;;;;;4991868;28;20125;-67
2023/09/26 11:41:20;;;;;;;5.20;4.70;;;20.50;99.90;;;;;;4996838;28;20038;-67
2023/09/26 11:43:47;;;;;;;7.43;5.40;;;20.60;99.90;;;;;;5062049;28;20054;-67
2023/09/26 11:46:13;;;;;;;5.70;5.13;;;20.60;99.90;;;;;;5068628;28;20045;-67
2023/09/26 11:48:41;;;;;;;5.35;4.85;;;20.60;99.90;;;;;;4998068;28;20045;-67
2023/09/26 11:51:07;;;;;;;7.53;5.55;;;20.70;99.90;;;;;;4999877;28;20034;-67
2023/09/26 11:53:32;;;;;;;8.73;6.18;;;20.70;99.90;;;;;;5069317;28;20095;-67
2023/09/26 11:55:58;;;;;;;7.88;5.88;;;20.70;99.90;;;;;;4999337;28;20046;-67
2023/09/26 11:58:24;;;;;;;6.95;5.45;;;20.80;99.90;;;;;;4999572;28;20045;-67
2023/09/26 12:00:50;;;;;;;8.88;6.07;;;20.90;99.90;;;;;;5065532;28;20458;-67
2023/09/26 12:03:16;;;;;;;6.20;5.50;;;21.00;99.90;;;;;;4998315;28;20045;-66
2023/09/26 12:05:41;;;;;;;6.55;5.97;;;21.10;99.90;;;;;;5000600;28;20038;-66
2023/09/26 12:08:07;;;;;;;12.65;6.10;;;21.10;99.90;;;;;;5062323;28;20046;-67
2023/09/26 12:10:33;;;;;;;7.00;6.00;;;21.20;99.90;;;;;;5066375;28;20046;-66
2023/09/26 12:12:58;;;;;;;7.05;5.75;;;21.20;99.90;;;;;;5001304;28;20112;-66
2023/09/26 12:15:25;;;;;;;7.53;5.32;;;21.20;99.90;;;;;;5001274;28;20037;-66
2023/09/26 12:17:52;;;;;;;6.75;6.15;;;21.20;99.90;;;;;;5068214;28;20041;-66
2023/09/26 12:20:24;;;;;;;7.72;5.35;;;21.10;99.90;;;;;;4997251;28;20060;-66
2023/09/26 12:22:53;;;;;;;8.00;5.35;;;21.10;99.90;;;;;;4997215;28;20042;-66
2023/09/26 12:25:22;;;;;;;8.00;5.95;;;21.10;99.90;;;;;;4999188;28;20038;-66
2023/09/26 12:27:47;;;;;;;7.53;5.88;;;21.10;99.90;;;;;;4998819;28;20044;-67
2023/09/26 12:30:13;;;;;;;7.00;5.68;;;21.20;99.90;;;;;;4998047;28;20042;-66
2023/09/26 12:32:40;;;;;;;5.95;4.88;;;21.20;99.90;;;;;;5065264;28;20057;-66
2023/09/26 12:35:06;;;;;;;6.18;5.63;;;21.30;99.90;;;;;;5069837;28;20046;-66
2023/09/26 12:37:32;;;;;;;7.80;6.15;;;21.30;99.90;;;;;;5071642;28;20042;-66
2023/09/26 12:39:58;;;;;;;6.30;5.30;;;21.40;99.90;;;;;;5063212;28;20119;-66
2023/09/26 12:42:25;;;;;;;7.72;5.78;;;21.50;99.90;;;;;;5070505;28;20132;-66